Time;durP1;ratioP1;P1;durP2;ratioP2;P2;SDS_P1;SDS_P2;PMS_P1;PMS_P2;Temp;Humidity;BMP_temperature;BMP_pressure;BME280_temperature;BME280_humidity;BME280_pressure;Samples;Min_cycle;Max_cycle;Signal;HPM_P1;HPM_P2
2023/02/06 00:01:48;;;;;;;6.00;4.50;;;;;;;0.07;100.00;101016.29;104372;1256;71893;-62
2023/02/06 00:04:16;;;;;;;4.30;3.90;;;;;;;0.09;100.00;101017.89;104290;1257;61193;-61
2023/02/06 00:06:45;;;;;;;4.60;4.00;;;;;;;0.04;100.00;101015.70;104334;1257;60543;-61
2023/02/06 00:09:14;;;;;;;6.40;4.50;;;;;;;0.01;100.00;101019.08;104357;1257;72990;-61
2023/02/06 00:11:43;;;;;;;4.80;4.30;;;;;;;0.02;100.00;101021.86;104288;1264;69587;-63
2023/02/06 00:14:12;;;;;;;6.40;4.60;;;;;;;0.02;100.00;101021.17;104305;1272;72343;-61
2023/02/06 00:17:00;;;;;;;5.30;4.50;;;;;;;0.04;100.00;101019.83;104332;1256;63500;-61
2023/02/06 00:19:30;;;;;;;5.20;4.50;;;;;;;0.06;100.00;101022.11;104457;1256;60206;-61
2023/02/06 00:21:59;;;;;;;4.80;4.30;;;;;;;0.08;100.00;101020.42;104341;1272;72637;-62
2023/02/06 00:24:28;;;;;;;5.50;4.80;;;;;;;0.09;100.00;101019.77;104251;1266;68761;-61
2023/02/06 00:26:56;;;;;;;4.90;4.50;;;;;;;0.12;100.00;101018.98;104344;1269;71590;-61
2023/02/06 00:29:24;;;;;;;5.20;4.50;;;;;;;0.17;100.00;101021.65;104387;1255;60695;-61
2023/02/06 00:31:53;;;;;;;5.90;5.00;;;;;;;0.18;100.00;101021.18;104400;1253;60675;-61
2023/02/06 00:34:21;;;;;;;5.20;4.40;;;;;;;0.17;100.00;101023.40;104214;1256;73309;-61
2023/02/06 00:36:50;;;;;;;5.40;4.70;;;;;;;0.17;100.00;101027.02;104451;1256;68596;-61
2023/02/06 00:39:19;;;;;;;6.30;4.80;;;;;;;0.35;100.00;101034.45;104321;1259;72584;-60
2023/02/06 00:41:49;;;;;;;6.40;5.10;;;;;;;0.50;100.00;101034.61;104353;1265;61052;-61
2023/02/06 00:44:18;;;;;;;6.20;5.10;;;;;;;0.49;100.00;101038.05;104401;1253;60644;-61
2023/02/06 00:46:46;;;;;;;5.90;4.90;;;;;;;0.43;100.00;101033.08;104308;1254;73800;-62
2023/02/06 00:49:14;;;;;;;5.90;5.20;;;;;;;0.42;100.00;101033.23;104271;1258;68864;-60
2023/02/06 00:51:43;;;;;;;6.90;4.90;;;;;;;0.43;100.00;101030.15;104433;1253;72353;-61
2023/02/06 00:54:11;;;;;;;5.00;4.40;;;;;;;0.43;100.00;101022.04;104410;1256;60992;-61
2023/02/06 00:56:42;;;;;;;5.70;4.40;;;;;;;0.46;100.00;101016.92;104335;1259;60561;-61
2023/02/06 00:59:10;;;;;;;5.50;4.90;;;;;;;0.48;100.00;101018.70;104334;1253;73087;-62
2023/02/06 01:01:39;;;;;;;5.80;5.10;;;;;;;0.48;100.00;101016.43;104339;1259;69792;-61
2023/02/06 01:04:08;;;;;;;5.70;5.20;;;;;;;0.50;100.00;101014.41;104292;1275;71751;-61
2023/02/06 01:06:58;;;;;;;5.90;5.30;;;;;;;0.50;100.00;101015.63;104404;1259;64141;-61
2023/02/06 01:09:26;;;;;;;6.70;5.10;;;;;;;0.52;100.00;101017.39;104344;1254;60458;-60
2023/02/06 01:11:56;;;;;;;6.00;5.40;;;;;;;0.55;100.00;101016.59;104329;1259;73303;-61
2023/02/06 01:14:26;;;;;;;6.30;5.70;;;;;;;0.51;100.00;101015.64;104317;1264;68738;-61
2023/02/06 01:16:54;;;;;;;5.20;4.70;;;;;;;0.52;100.00;101011.70;104307;1254;71864;-61
2023/02/06 01:19:23;;;;;;;5.10;4.60;;;;;;;0.53;100.00;101016.39;104311;1265;60721;-61
2023/02/06 01:21:52;;;;;;;5.60;5.00;;;;;;;0.55;100.00;101015.73;104377;1257;60449;-61
2023/02/06 01:24:21;;;;;;;5.60;4.80;;;;;;;0.56;100.00;101016.27;104328;1253;74328;-61
2023/02/06 01:26:49;;;;;;;5.90;5.30;;;;;;;0.60;100.00;101016.17;104324;1258;69414;-62
2023/02/06 01:29:18;;;;;;;5.50;4.90;;;;;;;0.63;100.00;101020.02;104293;1265;71970;-62
2023/02/06 01:31:47;;;;;;;4.90;4.30;;;;;;;0.63;100.00;101019.84;104387;1253;60574;-62
2023/02/06 01:34:17;;;;;;;5.70;5.10;;;;;;;0.62;100.00;101019.66;104343;1265;60557;-62
2023/02/06 01:36:46;;;;;;;5.20;4.70;;;;;;;0.59;100.00;101014.24;104419;1258;73642;-62
2023/02/06 01:39:14;;;;;;;5.80;5.20;;;;;;;0.60;100.00;101017.20;104298;1265;68542;-62
2023/02/06 01:41:43;;;;;;;5.70;5.10;;;;;;;0.60;100.00;101017.72;104257;1275;71645;-61
2023/02/06 01:44:22;;;;;;;4.90;4.50;;;;;;;0.57;100.00;101015.77;104327;1269;59999;-61
2023/02/06 01:46:53;;;;;;;5.50;4.90;;;;;;;0.53;100.00;101017.23;104354;1253;60537;-62
2023/02/06 01:49:29;;;;;;;5.00;4.40;;;;;;;0.50;100.00;101018.73;104272;1253;73062;-62
2023/02/06 01:52:12;;;;;;;5.30;4.60;;;;;;;0.48;100.00;101016.80;104331;1258;68308;-61
2023/02/06 01:54:42;;;;;;;5.10;4.60;;;;;;;0.45;100.00;101025.36;104315;1258;72868;-61
2023/02/06 01:57:11;;;;;;;4.70;4.30;;;;;;;0.45;100.00;101030.02;104329;1256;60584;-61
2023/02/06 01:59:40;;;;;;;5.30;4.50;;;;;;;0.46;100.00;101027.61;104331;1254;60534;-61
2023/02/06 02:02:08;;;;;;;5.00;4.50;;;;;;;0.45;100.00;101027.41;104315;1253;73105;-61
2023/02/06 02:04:37;;;;;;;5.80;5.20;;;;;;;0.44;100.00;101027.92;104327;1258;69366;-61
2023/02/06 02:07:21;;;;;;;5.20;4.70;;;;;;;0.41;100.00;101027.69;104340;1265;71869;-61
2023/02/06 02:09:49;;;;;;;4.90;4.40;;;;;;;0.41;100.00;101032.69;104490;1254;60473;-67
2023/02/06 02:12:18;;;;;;;5.40;4.90;;;;;;;0.39;100.00;101034.73;104342;1259;60536;-61
2023/02/06 02:14:47;;;;;;;5.20;4.70;;;;;;;0.36;100.00;101035.54;104497;1269;72828;-60
2023/02/06 02:17:55;;;;;;;6.40;5.10;;;;;;;0.38;100.00;101039.19;104419;1258;68602;-60
2023/02/06 02:20:52;;;;;;;4.90;4.40;;;;;;;0.44;100.00;101037.77;104561;1260;72128;-62
2023/02/06 02:23:44;;;;;;;5.20;4.70;;;;;;;0.46;100.00;101041.95;104466;1253;60552;-61
2023/02/06 02:26:13;;;;;;;5.30;4.70;;;;;;;0.46;100.00;101039.02;104429;1253;60538;-61
2023/02/06 02:28:50;;;;;;;6.10;5.10;;;;;;;0.47;100.00;101043.16;104466;1257;73242;-60
2023/02/06 02:31:51;;;;;;;5.60;5.10;;;;;;;0.44;100.00;101039.83;104449;1258;69307;-61
2023/02/06 02:34:42;;;;;;;4.90;4.40;;;;;;;0.45;100.00;101038.80;104433;1271;72192;-61
2023/02/06 02:37:36;;;;;;;5.10;4.30;;;;;;;0.47;100.00;101043.16;104433;1272;62282;-61
2023/02/06 02:40:08;;;;;;;4.90;4.40;;;;;;;0.43;100.00;101052.05;104613;1257;60690;-63
2023/02/06 02:42:45;;;;;;;5.50;4.90;;;;;;;0.39;100.00;101056.11;104585;1257;74146;-62
2023/02/06 02:45:24;;;;;;;5.70;4.50;;;;;;;0.42;100.00;101055.83;104365;1257;69484;-62
2023/02/06 02:48:02;;;;;;;4.80;4.40;;;;;;;0.43;100.00;101055.68;104582;1253;72662;-63
2023/02/06 02:50:33;;;;;;;5.40;4.50;;;;;;;0.44;100.00;101057.44;104307;1268;60585;-63
2023/02/06 02:53:02;;;;;;;4.60;4.10;;;;;;;0.42;100.00;101057.57;104515;1261;60174;-61
2023/02/06 02:55:32;;;;;;;4.80;4.40;;;;;;;0.38;100.00;101059.21;104526;1256;73369;-60
2023/02/06 02:58:07;;;;;;;4.90;4.40;;;;;;;0.40;100.00;101060.63;104475;1266;69536;-60
2023/02/06 03:00:39;;;;;;;5.30;4.70;;;;;;;0.40;100.00;101060.45;104534;1257;72756;-64
2023/02/06 03:03:09;;;;;;;4.90;4.40;;;;;;;0.37;100.00;101067.11;104391;1257;60993;-61
2023/02/06 03:05:57;;;;;;;5.00;4.30;;;;;;;0.34;100.00;101061.54;104426;1255;60534;-61
2023/02/06 03:08:51;;;;;;;4.60;4.20;;;;;;;0.34;100.00;101066.02;104217;1253;75143;-62
2023/02/06 03:11:22;;;;;;;4.00;3.60;;;;;;;0.34;100.00;101065.16;104439;1259;69469;-63
2023/02/06 03:14:01;;;;;;;4.60;4.10;;;;;;;0.33;100.00;101065.83;104311;1256;73199;-60
2023/02/06 03:16:44;;;;;;;4.40;3.90;;;;;;;0.30;100.00;101068.34;104474;1259;61057;-60
2023/02/06 03:19:24;;;;;;;5.30;3.70;;;;;;;0.29;100.00;101072.27;104691;1255;61291;-61
2023/02/06 03:21:52;;;;;;;4.60;4.20;;;;;;;0.31;100.00;101073.19;104417;1259;73891;-61
2023/02/06 03:24:25;;;;;;;4.40;3.90;;;;;;;0.33;100.00;101073.75;104395;1270;70098;-61
2023/02/06 03:26:57;;;;;;;3.40;3.10;;;;;;;0.34;100.00;101075.85;104600;1258;74331;-60
2023/02/06 03:29:30;;;;;;;4.20;3.80;;;;;;;0.36;100.00;101076.75;104336;1256;61209;-61
2023/02/06 03:32:11;;;;;;;4.20;3.80;;;;;;;0.35;100.00;101077.27;104290;1260;61299;-60
2023/02/06 03:35:02;;;;;;;4.20;3.80;;;;;;;0.37;100.00;101073.69;104729;1251;74611;-60
2023/02/06 03:37:31;;;;;;;5.40;4.00;;;;;;;0.39;100.00;101080.44;104378;1259;71058;-61
2023/02/06 03:40:19;;;;;;;8.40;4.30;;;;;;;0.37;100.00;101081.61;104558;1257;75816;-60
2023/02/06 03:42:50;;;;;;;4.10;3.80;;;;;;;0.38;100.00;101085.42;104490;1266;61437;-60
2023/02/06 03:45:22;;;;;;;4.60;4.20;;;;;;;0.33;100.00;101082.73;104345;1269;61081;-61
2023/02/06 03:47:50;;;;;;;4.50;3.90;;;;;;;0.32;100.00;101085.80;104422;1257;74275;-60
2023/02/06 03:50:20;;;;;;;4.70;4.20;;;;;;;0.34;100.00;101083.42;104361;1258;69826;-60
2023/02/06 03:52:48;;;;;;;3.70;3.40;;;;;;;0.29;100.00;101082.81;104297;1269;73083;-60
2023/02/06 03:55:21;;;;;;;3.80;3.40;;;;;;;0.31;100.00;101088.23;104302;1268;61894;-60
2023/02/06 03:57:55;;;;;;;4.40;3.60;;;;;;;0.32;100.00;101089.62;104310;1265;60208;-60
2023/02/06 04:00:24;;;;;;;4.30;3.80;;;;;;;0.34;100.00;101087.23;104330;1261;75398;-60
2023/02/06 04:02:52;;;;;;;5.10;4.10;;;;;;;0.39;100.00;101086.82;104253;1256;69869;-61
2023/02/06 04:05:21;;;;;;;4.60;4.20;;;;;;;0.42;100.00;101093.10;104282;1255;73809;-60
2023/02/06 04:07:51;;;;;;;4.50;4.10;;;;;;;0.41;100.00;101094.98;104292;1258;61938;-60
2023/02/06 04:10:20;;;;;;;5.00;3.90;;;;;;;0.45;100.00;101095.23;104298;1272;61631;-60
2023/02/06 04:12:49;;;;;;;4.40;3.90;;;;;;;0.48;100.00;101097.86;104252;1259;74537;-60
2023/02/06 04:15:17;;;;;;;4.80;4.40;;;;;;;0.48;100.00;101100.48;104276;1275;70276;-60
2023/02/06 04:17:46;;;;;;;4.80;4.20;;;;;;;0.46;100.00;101102.84;104307;1271;73477;-60
2023/02/06 04:20:28;;;;;;;4.60;4.20;;;;;;;0.45;100.00;101102.47;104298;1256;61700;-60
2023/02/06 04:22:57;;;;;;;5.70;4.70;;;;;;;0.48;100.00;101106.52;104246;1275;61656;-60
2023/02/06 04:25:26;;;;;;;5.80;5.00;;;;;;;0.52;100.00;101110.05;104286;1256;76202;-60
2023/02/06 04:27:55;;;;;;;4.80;4.30;;;;;;;0.57;100.00;101107.73;104303;1261;70173;-60
2023/02/06 04:30:23;;;;;;;5.40;4.80;;;;;;;0.64;100.00;101112.38;104301;1266;72908;-60
2023/02/06 04:32:52;;;;;;;5.20;4.60;;;;;;;0.65;100.00;101113.77;104287;1264;60571;-60
2023/02/06 04:35:20;;;;;;;5.40;4.90;;;;;;;0.67;100.00;101112.27;104319;1265;60722;-60
2023/02/06 04:37:48;;;;;;;5.50;4.90;;;;;;;0.69;100.00;101114.21;104270;1251;74939;-60
2023/02/06 04:40:17;;;;;;;5.70;5.00;;;;;;;0.70;100.00;101121.81;104344;1257;70610;-62
2023/02/06 04:42:46;;;;;;;5.90;5.00;;;;;;;0.72;100.00;101119.45;104293;1272;75442;-61
2023/02/06 04:45:14;;;;;;;6.40;5.60;;;;;;;0.77;100.00;101119.04;104237;1265;61974;-61
2023/02/06 04:47:43;;;;;;;5.30;4.80;;;;;;;0.73;100.00;101117.41;104377;1273;61691;-66
2023/02/06 04:50:12;;;;;;;6.00;5.20;;;;;;;0.72;100.00;101122.20;104324;1257;74788;-65
2023/02/06 04:52:41;;;;;;;6.20;5.60;;;;;;;0.69;100.00;101123.20;104342;1266;70365;-64
2023/02/06 04:55:09;;;;;;;6.00;5.10;;;;;;;0.68;100.00;101122.64;104331;1257;73251;-62
2023/02/06 04:57:39;;;;;;;7.60;5.90;;;;;;;0.69;100.00;101119.56;104386;1271;62683;-63
2023/02/06 05:00:09;;;;;;;6.70;5.50;;;;;;;0.74;100.00;101121.40;104267;1255;61712;-64
2023/02/06 05:02:38;;;;;;;6.30;5.20;;;;;;;0.76;100.00;101123.16;104363;1269;76113;-66
2023/02/06 05:05:07;;;;;;;5.50;4.90;;;;;;;0.73;100.00;101122.58;104324;1258;69677;-68
2023/02/06 05:07:37;;;;;;;5.80;4.70;;;;;;;0.65;100.00;101126.73;104448;1265;73099;-66
2023/02/06 05:10:07;;;;;;;5.10;4.60;;;;;;;0.60;100.00;101126.63;104341;1257;61686;-66
2023/02/06 05:12:37;;;;;;;6.10;5.50;;;;;;;0.59;100.00;101125.05;104304;1272;61692;-66
2023/02/06 05:15:06;;;;;;;6.00;5.10;;;;;;;0.63;100.00;101127.38;104305;1258;74882;-66
2023/02/06 05:17:35;;;;;;;7.70;5.80;;;;;;;0.64;100.00;101127.22;104649;1255;70174;-68
2023/02/06 05:20:05;;;;;;;6.70;5.50;;;;;;;0.66;100.00;101127.80;104302;1273;73803;-66
2023/02/06 05:22:34;;;;;;;6.20;5.60;;;;;;;0.67;100.00;101125.02;104250;1273;61638;-67
2023/02/06 05:25:02;;;;;;;7.30;5.80;;;;;;;0.66;100.00;101126.58;104310;1269;61590;-66
2023/02/06 05:27:31;;;;;;;8.70;6.40;;;;;;;0.69;100.00;101124.40;104419;1263;75400;-66
2023/02/06 05:30:00;;;;;;;8.10;6.50;;;;;;;0.74;100.00;101130.03;104316;1254;70057;-66
2023/02/06 05:32:28;;;;;;;7.30;5.50;;;;;;;0.79;100.00;101133.41;104448;1257;73118;-67
2023/02/06 05:34:56;;;;;;;7.70;5.80;;;;;;;0.82;100.00;101133.64;104323;1255;61706;-68
2023/02/06 05:37:25;;;;;;;7.40;6.40;;;;;;;0.80;100.00;101134.98;104264;1275;61171;-68
2023/02/06 05:39:53;;;;;;;8.70;6.30;;;;;;;0.78;100.00;101132.87;104267;1254;74281;-67
2023/02/06 05:42:22;;;;;;;8.70;6.70;;;;;;;0.80;100.00;101132.39;104335;1257;70877;-66
2023/02/06 05:44:50;;;;;;;8.00;6.30;;;;;;;0.85;100.00;101135.42;104298;1257;73643;-66
2023/02/06 05:47:18;;;;;;;11.70;6.90;;;;;;;0.88;100.00;101131.87;104295;1272;62155;-66
2023/02/06 05:49:47;;;;;;;7.30;6.20;;;;;;;0.88;100.00;101130.15;104311;1264;62031;-65
2023/02/06 05:52:15;;;;;;;7.00;5.90;;;;;;;0.87;100.00;101134.24;104242;1270;76098;-65
2023/02/06 05:54:44;;;;;;;6.80;5.80;;;;;;;0.83;100.00;101135.21;104299;1275;70884;-66
2023/02/06 05:57:12;;;;;;;6.50;5.60;;;;;;;0.74;100.00;101134.67;104283;1257;74154;-64
2023/02/06 05:59:41;;;;;;;5.50;5.00;;;;;;;0.69;100.00;101134.23;104226;1254;63495;-65
2023/02/06 06:04:49;;;;;;;7.90;5.30;;;;;;;0.19;100.00;101142.08;101432;1297;601388;-65
2023/02/06 06:07:17;;;;;;;5.70;5.00;;;;;;;0.54;100.00;101144.43;103898;1266;59711;-65
2023/02/06 06:09:46;;;;;;;6.50;4.90;;;;;;;0.54;100.00;101143.90;103851;1266;61135;-66
2023/02/06 06:12:18;;;;;;;6.90;4.60;;;;;;;0.51;100.00;101144.02;103780;1268;73294;-65
2023/02/06 06:14:46;;;;;;;6.20;4.60;;;;;;;0.51;100.00;101146.25;103791;1283;71287;-66
2023/02/06 06:17:15;;;;;;;6.20;4.80;;;;;;;0.56;100.00;101144.83;103774;1277;72970;-62
2023/02/06 06:19:43;;;;;;;5.80;5.10;;;;;;;0.58;100.00;101139.85;103819;1279;62347;-64
2023/02/06 06:22:12;;;;;;;5.40;4.90;;;;;;;0.61;100.00;101138.38;103892;1273;60472;-65
2023/02/06 06:24:40;;;;;;;5.70;5.10;;;;;;;0.66;100.00;101135.70;103770;1275;73771;-63
2023/02/06 06:27:09;;;;;;;5.70;4.80;;;;;;;0.69;100.00;101137.50;103933;1276;69800;-60
2023/02/06 06:29:38;;;;;;;4.60;4.10;;;;;;;0.67;100.00;101139.36;104044;1262;74353;-61
2023/02/06 06:32:07;;;;;;;5.50;4.60;;;;;;;0.68;100.00;101141.30;103866;1264;60876;-62
2023/02/06 06:34:35;;;;;;;4.50;3.90;;;;;;;0.65;100.00;101140.53;103904;1285;60764;-61
2023/02/06 06:37:04;;;;;;;4.90;4.20;;;;;;;0.61;100.00;101144.92;103907;1279;74221;-61
2023/02/06 06:39:33;;;;;;;4.60;4.20;;;;;;;0.63;100.00;101149.81;103915;1265;70127;-59
2023/02/06 06:42:03;;;;;;;5.20;4.50;;;;;;;0.66;100.00;101149.35;103872;1266;73976;-62
2023/02/06 06:44:32;;;;;;;4.90;4.00;;;;;;;0.69;100.00;101150.28;103801;1285;61962;-64
2023/02/06 06:47:00;;;;;;;4.20;3.80;;;;;;;0.73;100.00;101151.75;103820;1270;60834;-63
2023/02/06 06:49:28;;;;;;;4.50;4.10;;;;;;;0.76;100.00;101152.86;103860;1276;73677;-62
2023/02/06 06:51:57;;;;;;;7.20;4.70;;;;;;;0.81;100.00;101154.49;103897;1270;70851;-61
2023/02/06 06:54:26;;;;;;;5.00;4.20;;;;;;;0.80;100.00;101150.85;103900;1275;73825;-62
2023/02/06 06:56:54;;;;;;;6.10;3.90;;;;;;;0.81;100.00;101155.88;103909;1261;60889;-63
2023/02/06 06:59:23;;;;;;;4.90;4.30;;;;;;;0.83;100.00;101157.48;103934;1264;60827;-65
2023/02/06 07:01:51;;;;;;;4.80;4.30;;;;;;;0.87;100.00;101162.57;104300;1260;74315;-63
2023/02/06 07:04:19;;;;;;;4.80;3.90;;;;;;;0.86;100.00;101162.89;104453;1264;70616;-63
2023/02/06 07:06:50;;;;;;;4.20;3.80;;;;;;;0.85;100.00;101163.89;104399;1261;74510;-64
2023/02/06 07:09:19;;;;;;;5.30;4.50;;;;;;;0.85;100.00;101165.13;104481;1267;61247;-68
2023/02/06 07:11:47;;;;;;;5.00;4.50;;;;;;;0.87;100.00;101165.00;104370;1266;61428;-65
2023/02/06 07:14:16;;;;;;;6.50;4.50;;;;;;;0.92;100.00;101161.30;104338;1267;73915;-64
2023/02/06 07:16:44;;;;;;;7.30;4.30;;;;;;;0.95;100.00;101164.48;104476;1267;70348;-68
2023/02/06 07:19:13;;;;;;;5.00;4.10;;;;;;;0.99;100.00;101165.41;104325;1254;74776;-68
2023/02/06 07:21:42;;;;;;;5.40;4.60;;;;;;;0.96;100.00;101169.33;104326;1270;62526;-68
2023/02/06 07:24:11;;;;;;;5.80;5.00;;;;;;;0.96;100.00;101169.66;104273;1267;60887;-69
2023/02/06 07:26:40;;;;;;;7.70;4.80;;;;;;;1.02;100.00;101173.75;104319;1251;73795;-69
2023/02/06 07:29:08;;;;;;;5.80;4.80;;;;;;;1.10;100.00;101175.47;104312;1274;70747;-69
2023/02/06 07:31:37;;;;;;;5.90;4.80;;;;;;;1.13;100.00;101178.48;104392;1259;73716;-69
2023/02/06 07:34:06;;;;;;;6.40;4.40;;;;;;;1.18;100.00;101180.64;104461;1254;61622;-68
2023/02/06 07:36:34;;;;;;;5.30;4.50;;;;;;;1.21;100.00;101178.29;104349;1255;60879;-68
2023/02/06 07:39:03;;;;;;;5.70;5.20;;;;;;;1.23;100.00;101177.30;104355;1267;74028;-68
2023/02/06 07:41:31;;;;;;;6.30;5.40;;;;;;;1.21;100.00;101180.70;104409;1253;71213;-68
2023/02/06 07:44:00;;;;;;;7.70;5.40;;;;;;;1.19;100.00;101184.13;104251;1263;74151;-70
2023/02/06 07:46:28;;;;;;;6.90;5.60;;;;;;;1.18;100.00;101185.13;104318;1254;61740;-67
2023/02/06 07:48:57;;;;;;;5.20;4.60;;;;;;;1.21;100.00;101183.64;104247;1274;62417;-66
2023/02/06 09:53:40;;;;;;;3.40;2.80;;;;;;;-0.82;100.00;101216.98;101670;1291;601674;-68
2023/02/06 09:56:26;;;;;;;4.20;3.80;;;;;;;-0.19;100.00;101209.06;103950;1266;62187;-67
2023/02/06 09:59:20;;;;;;;4.40;3.80;;;;;;;-0.05;100.00;101205.64;103876;1269;59471;-64
2023/02/06 10:02:04;;;;;;;5.70;4.60;;;;;;;0.05;100.00;101204.15;103508;1272;73038;-63
2023/02/06 10:04:39;;;;;;;4.70;4.30;;;;;;;0.05;100.00;101199.52;104108;1266;68896;-66
2023/02/06 10:07:34;;;;;;;5.80;4.90;;;;;;;0.07;100.00;101203.86;103923;1260;151880;-65
2023/02/06 10:10:14;;;;;;;5.00;4.30;;;;;;;0.12;100.00;101205.90;104227;1257;59360;-66
2023/02/06 10:12:57;;;;;;;4.50;3.90;;;;;;;0.14;100.00;101203.36;104324;1260;59701;-63
2023/02/06 10:15:45;;;;;;;4.30;3.90;;;;;;;0.05;100.00;101201.25;104654;1260;71882;-66
2023/02/06 10:18:32;;;;;;;4.30;3.90;;;;;;;0.04;100.00;101202.41;104272;1261;69702;-65
2023/02/06 10:21:05;;;;;;;6.20;4.60;;;;;;;0.14;100.00;101200.94;104509;1257;72618;-66
2023/02/06 10:23:37;;;;;;;4.30;3.90;;;;;;;0.24;100.00;101201.20;104085;1256;59777;-68
2023/02/06 10:26:17;;;;;;;3.70;3.40;;;;;;;0.29;100.00;101196.65;104314;1257;60346;-65
2023/02/06 10:28:47;;;;;;;4.40;3.80;;;;;;;0.21;100.00;101193.35;104349;1260;73566;-71
2023/02/06 10:31:22;;;;;;;3.90;3.40;;;;;;;0.17;100.00;101194.45;104601;1272;68331;-67
2023/02/06 10:33:51;;;;;;;3.60;3.30;;;;;;;0.12;100.00;101198.31;104177;1259;72241;-69
2023/02/06 10:36:57;;;;;;;3.70;3.30;;;;;;;0.13;100.00;101197.12;104133;1259;61244;-67
2023/02/06 10:39:44;;;;;;;3.60;3.30;;;;;;;0.27;100.00;101188.84;104346;1256;60123;-68
2023/02/06 10:42:35;;;;;;;3.00;2.70;;;;;;;0.32;100.00;101184.83;104304;1264;72188;-66
2023/02/06 10:45:26;;;;;;;3.10;2.80;;;;;;;0.32;100.00;101190.16;104245;1271;69579;-67
2023/02/06 10:48:03;;;;;;;3.90;3.10;;;;;;;0.31;100.00;101200.85;104240;1256;71926;-67
2023/02/06 10:50:36;;;;;;;3.40;3.10;;;;;;;0.35;100.00;101198.34;104369;1258;59731;-66
2023/02/06 10:53:24;;;;;;;3.10;2.80;;;;;;;0.39;100.00;101196.70;104490;1259;60477;-65
2023/02/06 10:56:02;;;;;;;3.80;3.20;;;;;;;0.47;100.00;101196.02;104386;1256;72235;-67
2023/02/06 10:58:41;;;;;;;3.60;2.90;;;;;;;0.57;100.00;101192.12;104415;1261;68387;-68
2023/02/06 11:01:12;;;;;;;3.30;3.00;;;;;;;0.64;100.00;101185.90;104718;1255;72491;-69
2023/02/06 11:03:59;;;;;;;3.70;3.20;;;;;;;0.71;100.00;101184.33;104652;1255;59669;-66
2023/02/06 11:06:27;;;;;;;3.30;3.00;;;;;;;0.74;100.00;101182.31;104585;1253;59747;-69
2023/02/06 11:08:56;;;;;;;3.40;3.00;;;;;;;0.76;100.00;101182.88;104922;1251;72710;-68
2023/02/06 11:11:30;;;;;;;3.40;2.90;;;;;;;0.83;100.00;101184.23;104795;1256;68650;-66
2023/02/06 11:14:06;;;;;;;3.30;3.00;;;;;;;0.89;100.00;101180.57;104775;1270;73278;-66
2023/02/06 11:16:36;;;;;;;3.30;3.00;;;;;;;0.93;100.00;101176.52;104553;1259;60758;-68
2023/02/06 11:19:30;;;;;;;3.00;2.70;;;;;;;1.02;100.00;101169.27;104443;1264;60142;-68
2023/02/06 11:22:15;;;;;;;3.20;2.90;;;;;;;1.01;100.00;101165.45;104551;1253;72970;-67
2023/02/06 11:25:02;;;;;;;2.70;2.40;;;;;;;0.93;100.00;101165.64;104442;1258;70654;-68
2023/02/06 11:27:32;;;;;;;;;;;;;;;0.89;100.00;101166.42;104290;1257;72302;-68
2023/02/06 11:30:33;;;;;;;2.90;2.30;;;;;;;0.89;100.00;101168.83;104393;1258;59759;-67
2023/02/06 11:33:10;;;;;;;2.20;2.00;;;;;;;0.94;100.00;101169.12;104448;1270;60163;-66
2023/02/06 11:35:46;;;;;;;2.20;2.00;;;;;;;0.92;100.00;101165.80;104648;1267;73676;-68
2023/02/06 11:38:21;;;;;;;2.50;2.00;;;;;;;0.86;100.00;101169.46;104194;1251;68742;-68
2023/02/06 11:41:01;;;;;;;2.70;2.10;;;;;;;0.90;100.00;101164.02;104309;1255;71390;-69
2023/02/06 11:43:42;;;;;;;2.50;2.30;;;;;;;1.10;100.00;101159.75;104677;1252;60249;-64
2023/02/06 11:46:19;;;;;;;2.50;2.10;;;;;;;1.38;100.00;101156.34;104414;1251;61515;-65
2023/02/06 11:48:54;;;;;;;2.60;1.70;;;;;;;1.54;100.00;101156.63;104580;1252;73254;-65
2023/02/06 11:51:23;;;;;;;2.00;1.80;;;;;;;1.47;100.00;101157.52;104411;1258;70886;-66
2023/02/06 11:54:02;;;;;;;1.60;1.50;;;;;;;1.39;100.00;101154.80;104642;1257;74073;-66
2023/02/06 11:56:30;;;;;;;2.10;1.90;;;;;;;1.28;100.00;101153.04;104671;1253;60700;-65
2023/02/06 11:59:06;;;;;;;1.70;1.60;;;;;;;1.19;100.00;101152.87;104286;1253;60486;-63
2023/02/06 12:01:45;;;;;;;1.60;1.50;;;;;;;1.04;100.00;101152.56;104372;1254;71549;-65
2023/02/06 12:04:39;;;;;;;1.60;1.50;;;;;;;1.02;100.00;101157.70;104389;1255;69302;-65
2023/02/06 12:07:28;;;;;;;1.50;1.40;;;;;;;1.00;100.00;101153.69;104352;1253;72723;-65
2023/02/06 12:09:57;;;;;;;1.30;1.20;;;;;;;1.00;100.00;101156.44;104278;1258;59786;-67
2023/02/06 12:12:36;;;;;;;1.50;1.40;;;;;;;1.02;100.00;101152.01;104584;1258;60267;-63
2023/02/06 12:15:06;;;;;;;1.90;1.50;;;;;;;1.02;100.00;101164.61;104500;1255;72468;-64
2023/02/06 12:17:58;;;;;;;1.20;1.10;;;;;;;1.07;100.00;101153.48;104733;1258;70272;-66
2023/02/06 12:20:30;;;;;;;1.90;1.40;;;;;;;1.07;100.00;101150.20;104857;1253;72473;-68
2023/02/06 12:23:10;;;;;;;1.70;1.50;;;;;;;1.06;100.00;101153.46;104732;1272;60938;-68
2023/02/06 12:25:42;;;;;;;2.00;1.70;;;;;;;1.22;100.00;101148.09;105171;1253;60781;-66
2023/02/06 12:28:15;;;;;;;2.10;1.90;;;;;;;1.41;100.00;101152.05;104660;1253;72071;-65
2023/02/06 12:30:50;;;;;;;3.00;2.20;;;;;;;1.53;100.00;101152.80;104972;1256;68687;-69
2023/02/06 12:33:22;;;;;;;1.60;1.50;;;;;;;1.65;100.00;101155.95;104577;1267;74081;-71
2023/02/06 12:35:57;;;;;;;1.60;1.40;;;;;;;1.84;100.00;101157.50;105075;1257;60964;-67
2023/02/06 12:38:49;;;;;;;1.50;1.40;;;;;;;2.06;100.00;101158.02;105073;1259;60736;-64
2023/02/06 12:41:39;;;;;;;1.50;1.40;;;;;;;2.23;100.00;101151.91;104625;1255;73538;-63
2023/02/06 12:44:42;;;;;;;1.90;1.60;;;;;;;2.30;100.00;101152.20;104649;1257;69084;-62
2023/02/06 12:47:29;;;;;;;1.60;1.50;;;;;;;2.17;100.00;101149.21;104729;1257;72312;-69
2023/02/06 12:50:08;;;;;;;2.00;1.70;;;;;;;1.90;100.00;101144.11;104588;1259;60803;-65
2023/02/06 12:52:45;;;;;;;2.10;1.90;;;;;;;1.76;100.00;101141.97;104700;1253;60776;-70
2023/02/06 12:55:17;;;;;;;1.60;1.50;;;;;;;1.63;100.00;101144.17;104736;1259;71848;-67
2023/02/06 12:57:45;;;;;;;2.20;2.00;;;;;;;1.45;100.00;101142.28;104549;1267;70243;-64
2023/02/06 13:00:51;;;;;;;2.10;1.80;;;;;;;1.28;100.00;101143.52;104458;1266;72539;-68
2023/02/06 13:03:28;;;;;;;1.80;1.60;;;;;;;1.03;100.00;101140.63;104547;1267;61014;-68
2023/02/06 13:06:01;;;;;;;1.40;1.30;;;;;;;0.83;100.00;101141.08;104699;1253;60880;-66
2023/02/06 13:08:38;;;;;;;2.00;1.80;;;;;;;0.78;100.00;101145.64;104669;1258;72004;-67
2023/02/06 13:11:16;;;;;;;2.40;2.00;;;;;;;0.75;100.00;101146.80;104508;1258;68332;-68
2023/02/06 13:13:45;;;;;;;2.10;1.90;;;;;;;0.67;100.00;101141.09;104530;1268;73451;-69
2023/02/06 13:16:14;;;;;;;2.30;2.10;;;;;;;0.57;100.00;101140.35;104694;1255;60888;-63
2023/02/06 13:18:51;;;;;;;2.20;1.80;;;;;;;0.51;100.00;101139.36;105055;1253;60859;-66
2023/02/06 13:21:23;;;;;;;2.10;1.90;;;;;;;0.43;100.00;101140.73;104898;1255;73840;-67
2023/02/06 13:24:01;;;;;;;2.50;2.10;;;;;;;0.34;100.00;101144.50;104560;1271;70486;-69
2023/02/06 13:26:42;;;;;;;1.70;1.60;;;;;;;0.34;100.00;101146.40;104655;1256;71308;-71
2023/02/06 13:29:27;;;;;;;2.80;2.50;;;;;;;0.36;100.00;101148.52;105057;1255;60902;-69
2023/02/06 13:32:16;;;;;;;3.90;2.70;;;;;;;0.58;100.00;101144.85;104809;1256;60858;-67
2023/02/06 13:34:49;;;;;;;3.10;2.80;;;;;;;0.79;100.00;101147.71;105019;1253;74232;-65
2023/02/06 13:37:36;;;;;;;2.40;2.20;;;;;;;0.81;100.00;101147.60;104835;1255;68272;-69
2023/02/06 13:40:27;;;;;;;3.10;2.60;;;;;;;0.78;100.00;101147.71;104466;1256;72337;-66
2023/02/06 13:43:18;;;;;;;2.70;2.40;;;;;;;0.71;100.00;101150.16;104811;1259;60770;-66
2023/02/06 13:46:06;;;;;;;2.50;2.30;;;;;;;0.67;100.00;101152.13;104763;1257;61060;-66
2023/02/06 13:48:56;;;;;;;2.60;2.30;;;;;;;0.61;100.00;101153.04;104534;1264;73866;-67
2023/02/06 13:51:30;;;;;;;2.20;2.00;;;;;;;0.52;100.00;101157.49;104909;1259;70688;-66
2023/02/06 13:54:05;;;;;;;2.60;2.40;;;;;;;0.52;100.00;101159.56;104533;1257;71765;-68